Time;durP1;ratioP1;P1;durP2;ratioP2;P2;SDS_P1;SDS_P2;PMS_P1;PMS_P2;Temp;Humidity;BMP_temperature;BMP_pressure;BME280_temperature;BME280_humidity;BME280_pressure;Samples;Min_cycle;Max_cycle;Signal;HPM_P1;HPM_P2
2022/05/11 00:01:19;;;;;;;3.67;0.65;;;;;;;;;;5260710;28;20020;-68
2022/05/11 00:03:50;;;;;;;3.22;0.70;;;;;;;;;;5260700;28;20025;-69
2022/05/11 00:06:21;;;;;;;2.10;0.70;;;;;;;;;;5260942;28;20357;-68
2022/05/11 00:08:52;;;;;;;3.78;0.80;;;;;;;;;;5261143;28;20016;-69
2022/05/11 00:11:26;;;;;;;6.28;0.80;;;;;;;;;;5259807;28;20381;-69
2022/05/11 00:13:57;;;;;;;7.32;0.93;;;;;;;;;;5261076;28;20017;-69
2022/05/11 00:16:29;;;;;;;3.30;0.70;;;;;;;;;;5260261;28;20032;-66
2022/05/11 00:19:00;;;;;;;3.28;0.75;;;;;;;;;;5260149;28;20082;-68
2022/05/11 00:21:32;;;;;;;2.15;0.98;;;;;;;;;;5260120;28;20028;-68
2022/05/11 00:24:03;;;;;;;2.00;0.75;;;;;;;;;;5260148;28;20396;-68
2022/05/11 00:26:34;;;;;;;6.65;1.55;;;;;;;;;;5259187;28;20025;-68
2022/05/11 00:29:06;;;;;;;2.55;0.70;;;;;;;;;;5259976;28;20017;-68
2022/05/11 00:31:37;;;;;;;5.47;0.70;;;;;;;;;;5259220;28;20093;-68
2022/05/11 00:34:08;;;;;;;4.30;0.70;;;;;;;;;;5259875;28;20341;-68
2022/05/11 00:36:39;;;;;;;3.30;0.68;;;;;;;;;;5260014;28;20024;-68
2022/05/11 00:39:10;;;;;;;5.80;0.75;;;;;;;;;;5259232;28;20285;-68
2022/05/11 00:41:42;;;;;;;5.18;0.60;;;;;;;;;;5259886;28;20279;-68
2022/05/11 00:44:14;;;;;;;6.43;0.50;;;;;;;;;;5259852;28;20033;-68
2022/05/11 00:46:56;;;;;;;7.50;0.60;;;;;;;;;;5259006;28;20116;-68
2022/05/11 00:49:36;;;;;;;4.28;1.10;;;;;;;;;;5259478;28;20045;-68
2022/05/11 00:52:09;;;;;;;3.83;0.70;;;;;;;;;;5260012;28;20125;-67
2022/05/11 00:54:41;;;;;;;3.97;0.70;;;;;;;;;;5259218;28;20027;-68
2022/05/11 00:57:15;;;;;;;2.80;0.75;;;;;;;;;;5259929;28;20032;-68
2022/05/11 00:59:48;;;;;;;2.72;0.98;;;;;;;;;;5259081;28;20384;-68
2022/05/11 01:02:21;;;;;;;2.35;0.60;;;;;;;;;;5259534;28;20369;-67
2022/05/11 01:04:54;;;;;;;3.67;0.57;;;;;;;;;;5259863;28;20078;-68
2022/05/11 01:07:26;;;;;;;3.90;0.50;;;;;;;;;;5258439;28;20053;-68
2022/05/11 01:09:57;;;;;;;2.10;0.50;;;;;;;;;;5260254;28;20484;-68
2022/05/11 01:12:35;;;;;;;1.20;0.50;;;;;;;;;;5259295;28;20067;-68
2022/05/11 01:15:07;;;;;;;4.75;0.60;;;;;;;;;;5258754;28;20382;-69
2022/05/11 01:17:39;;;;;;;3.22;0.60;;;;;;;;;;5259013;28;20197;-68
2022/05/11 01:20:13;;;;;;;3.92;0.60;;;;;;;;;;5259378;28;20086;-68
2022/05/11 01:22:56;;;;;;;4.00;1.17;;;;;;;;;;5258803;28;20025;-69
2022/05/11 01:25:28;;;;;;;2.55;0.63;;;;;;;;;;5259487;28;20044;-69
2022/05/11 01:28:01;;;;;;;2.13;0.40;;;;;;;;;;5259220;28;20079;-67
2022/05/11 01:30:32;;;;;;;5.90;0.65;;;;;;;;;;5262481;28;20085;-67
2022/05/11 01:33:03;;;;;;;2.15;0.47;;;;;;;;;;5263294;28;20412;-68
2022/05/11 01:35:44;;;;;;;2.13;0.40;;;;;;;;;;5262830;28;20746;-68
2022/05/11 01:38:21;;;;;;;1.17;0.47;;;;;;;;;;5263345;28;20072;-68
2022/05/11 01:40:52;;;;;;;2.60;0.50;;;;;;;;;;5263637;28;20121;-68
2022/05/11 01:43:24;;;;;;;2.77;0.50;;;;;;;;;;5262074;28;20112;-68
2022/05/11 01:45:56;;;;;;;5.13;0.50;;;;;;;;;;5263700;28;20267;-69
2022/05/11 01:48:27;;;;;;;4.00;0.50;;;;;;;;;;5263005;28;20044;-69
2022/05/11 01:50:59;;;;;;;5.95;0.50;;;;;;;;;;5262575;28;20049;-69
2022/05/11 01:53:30;;;;;;;2.08;0.50;;;;;;;;;;5262876;28;20541;-70
2022/05/11 01:56:01;;;;;;;1.33;0.50;;;;;;;;;;5262711;28;20044;-68
2022/05/11 01:58:32;;;;;;;2.00;0.60;;;;;;;;;;5263224;28;20286;-67
2022/05/11 02:01:04;;;;;;;2.67;0.50;;;;;;;;;;5263137;28;20248;-67
2022/05/11 02:03:35;;;;;;;2.92;0.70;;;;;;;;;;5262005;28;20036;-68
2022/05/11 02:08:56;;;;;;;2.30;0.70;;;;;;;;;;5263653;28;20267;-68
2022/05/11 02:11:27;;;;;;;4.95;0.50;;;;;;;;;;5261823;28;20021;-68
2022/05/11 02:13:58;;;;;;;3.23;0.50;;;;;;;;;;5263046;28;20267;-68
2022/05/11 02:16:29;;;;;;;2.28;0.70;;;;;;;;;;5262225;28;20762;-68
2022/05/11 02:19:01;;;;;;;3.67;0.70;;;;;;;;;;5261758;28;20057;-69
2022/05/11 02:21:32;;;;;;;3.03;0.55;;;;;;;;;;5262562;28;20290;-68
2022/05/11 02:24:03;;;;;;;3.42;0.50;;;;;;;;;;5261933;28;20036;-67
2022/05/11 02:26:34;;;;;;;2.08;0.50;;;;;;;;;;5262306;28;20283;-68
2022/05/11 02:29:05;;;;;;;3.95;0.50;;;;;;;;;;5262429;28;20040;-68
2022/05/11 02:31:37;;;;;;;1.43;0.40;;;;;;;;;;5261544;28;20263;-68
2022/05/11 02:35:12;;;;;;;3.40;0.47;;;;;;;;;;5262572;28;20409;-69
2022/05/11 02:36:59;;;;;;;4.00;0.50;;;;;;;;;;5262548;28;20611;-69
2022/05/11 02:39:30;;;;;;;2.03;0.40;;;;;;;;;;5261436;28;20021;-68
2022/05/11 02:42:01;;;;;;;3.30;0.60;;;;;;;;;;5261255;28;20100;-69
2022/05/11 02:44:32;;;;;;;4.13;0.60;;;;;;;;;;5262116;28;20021;-69
2022/05/11 02:47:03;;;;;;;4.17;0.50;;;;;;;;;;5261237;28;20029;-69
2022/05/11 02:49:35;;;;;;;8.88;0.50;;;;;;;;;;5261820;28;20314;-69
2022/05/11 02:52:06;;;;;;;2.63;0.65;;;;;;;;;;5261050;28;20534;-69
2022/05/11 02:54:37;;;;;;;4.40;0.52;;;;;;;;;;5261938;28;20084;-69
2022/05/11 02:57:08;;;;;;;2.17;0.57;;;;;;;;;;5262090;28;20017;-69
2022/05/11 02:59:39;;;;;;;3.83;0.50;;;;;;;;;;5260975;28;20028;-69
2022/05/11 03:02:11;;;;;;;2.10;0.43;;;;;;;;;;5261855;28;20708;-69
2022/05/11 03:04:42;;;;;;;1.75;0.40;;;;;;;;;;5261669;28;20266;-69
2022/05/11 03:07:14;;;;;;;3.25;0.52;;;;;;;;;;5261259;28;20017;-69
2022/05/11 03:09:45;;;;;;;1.58;0.50;;;;;;;;;;5262072;28;20287;-69
2022/05/11 03:12:16;;;;;;;2.03;0.50;;;;;;;;;;5261648;28;20009;-69
2022/05/11 03:14:53;;;;;;;2.17;0.45;;;;;;;;;;5260765;28;20021;-69
2022/05/11 03:17:24;;;;;;;1.83;0.50;;;;;;;;;;5260819;28;20037;-69
2022/05/11 03:19:55;;;;;;;4.38;0.50;;;;;;;;;;5261862;28;20070;-69
2022/05/11 03:22:26;;;;;;;2.63;0.47;;;;;;;;;;5260489;28;20540;-69
2022/05/11 03:24:58;;;;;;;1.50;0.50;;;;;;;;;;5262025;28;20276;-68
2022/05/11 03:27:29;;;;;;;5.20;0.50;;;;;;;;;;5260323;28;20013;-69
2022/05/11 03:30:00;;;;;;;1.67;0.40;;;;;;;;;;5261865;28;20020;-69
2022/05/11 03:35:21;;;;;;;3.80;0.55;;;;;;;;;;5260878;28;20116;-69
2022/05/11 03:37:52;;;;;;;5.37;0.60;;;;;;;;;;5261956;28;20489;-69
2022/05/11 03:40:24;;;;;;;1.45;0.40;;;;;;;;;;5261160;28;20279;-69
2022/05/11 03:42:55;;;;;;;1.98;0.40;;;;;;;;;;5260551;28;20033;-70
2022/05/11 03:45:26;;;;;;;2.13;0.40;;;;;;;;;;5260869;28;20441;-69
2022/05/11 03:47:57;;;;;;;1.70;0.40;;;;;;;;;;5261318;28;20362;-69
2022/05/11 03:50:28;;;;;;;3.80;0.50;;;;;;;;;;5259838;28;20301;-69
2022/05/11 03:52:59;;;;;;;2.47;0.67;;;;;;;;;;5261129;28;20461;-69
2022/05/11 03:55:31;;;;;;;2.40;0.40;;;;;;;;;;5260416;28;20345;-68
2022/05/11 03:58:02;;;;;;;1.90;0.50;;;;;;;;;;5261073;28;20385;-68
2022/05/11 04:00:33;;;;;;;2.30;0.60;;;;;;;;;;5260655;28;20319;-69
2022/05/11 04:03:04;;;;;;;3.80;0.90;;;;;;;;;;5259818;28;20036;-69
2022/05/11 04:05:35;;;;;;;1.65;0.50;;;;;;;;;;5260746;28;20314;-69
2022/05/11 04:08:07;;;;;;;3.42;0.60;;;;;;;;;;5260909;28;20021;-69
2022/05/11 04:10:38;;;;;;;1.45;0.50;;;;;;;;;;5260078;28;20017;-69
2022/05/11 04:13:10;;;;;;;1.30;0.40;;;;;;;;;;5260945;28;20074;-70
2022/05/11 04:15:41;;;;;;;3.25;0.50;;;;;;;;;;5260619;28;20098;-70
2022/05/11 04:18:12;;;;;;;2.42;0.88;;;;;;;;;;5259299;28;20052;-70
2022/05/11 04:20:43;;;;;;;2.50;0.70;;;;;;;;;;5260763;28;20423;-69
2022/05/11 04:23:15;;;;;;;1.67;0.50;;;;;;;;;;5260741;28;20303;-69
2022/05/11 04:25:46;;;;;;;3.70;0.50;;;;;;;;;;5259866;28;20096;-68
2022/05/11 04:28:18;;;;;;;2.38;0.40;;;;;;;;;;5260050;28;20045;-68
2022/05/11 04:30:49;;;;;;;2.35;0.50;;;;;;;;;;5259674;28;20368;-69
2022/05/11 04:33:20;;;;;;;2.97;0.35;;;;;;;;;;5259686;28;20027;-69
2022/05/11 04:35:51;;;;;;;3.20;0.40;;;;;;;;;;5260301;28;20025;-69
2022/05/11 04:38:22;;;;;;;1.50;0.98;;;;;;;;;;5258947;28;20017;-69
2022/05/11 04:40:54;;;;;;;1.92;0.43;;;;;;;;;;5260402;28;20017;-69
2022/05/11 04:43:25;;;;;;;3.42;0.50;;;;;;;;;;5259969;28;20103;-69
2022/05/11 04:45:57;;;;;;;2.43;0.50;;;;;;;;;;5259721;28;20105;-69
2022/05/11 04:48:28;;;;;;;2.53;0.40;;;;;;;;;;5259708;28;20251;-69
2022/05/11 04:51:01;;;;;;;3.27;0.50;;;;;;;;;;5260260;28;20380;-68
2022/05/11 04:53:33;;;;;;;1.60;0.50;;;;;;;;;;5259048;28;20267;-68
2022/05/11 04:56:05;;;;;;;3.77;0.50;;;;;;;;;;5260493;28;20059;-70
2022/05/11 04:58:36;;;;;;;2.75;0.80;;;;;;;;;;5259356;28;20346;-69
2022/05/11 05:01:07;;;;;;;3.83;0.82;;;;;;;;;;5259752;28;20115;-69
2022/05/11 05:03:38;;;;;;;2.92;0.50;;;;;;;;;;5259947;28;20099;-69
2022/05/11 05:06:09;;;;;;;3.30;0.60;;;;;;;;;;5263370;28;20759;-69
2022/05/11 05:08:40;;;;;;;2.65;0.60;;;;;;;;;;5264667;28;20029;-70
2022/05/11 05:11:12;;;;;;;2.92;0.82;;;;;;;;;;5264094;28;20023;-69
2022/05/11 05:13:43;;;;;;;4.25;0.60;;;;;;;;;;5263187;28;20270;-69
2022/05/11 05:16:14;;;;;;;5.17;0.60;;;;;;;;;;5264007;28;20013;-69
2022/05/11 05:18:46;;;;;;;3.75;0.70;;;;;;;;;;5263721;28;20775;-68
2022/05/11 05:21:17;;;;;;;2.95;0.85;;;;;;;;;;5263249;28;20055;-69
2022/05/11 05:23:49;;;;;;;3.95;0.90;;;;;;;;;;5264254;28;20029;-68
2022/05/11 05:26:20;;;;;;;4.45;0.60;;;;;;;;;;5263784;28;20078;-69
2022/05/11 05:31:41;;;;;;;6.05;0.60;;;;;;;;;;5263831;28;20028;-69
2022/05/11 05:34:12;;;;;;;3.63;0.52;;;;;;;;;;5262730;28;20100;-69
2022/05/11 05:36:44;;;;;;;3.35;0.80;;;;;;;;;;5263506;28;20075;-69
2022/05/11 05:39:15;;;;;;;4.60;0.80;;;;;;;;;;5263454;28;20354;-69
2022/05/11 05:41:46;;;;;;;3.10;0.90;;;;;;;;;;5262889;28;20025;-69
2022/05/11 05:44:17;;;;;;;8.73;0.85;;;;;;;;;;5263315;28;20065;-69
2022/05/11 05:46:48;;;;;;;6.22;0.80;;;;;;;;;;5263531;28;20773;-69
2022/05/11 05:49:19;;;;;;;1.88;0.63;;;;;;;;;;5262471;28;20017;-71
2022/05/11 05:51:51;;;;;;;5.18;1.00;;;;;;;;;;5264270;28;20017;-69
2022/05/11 05:54:22;;;;;;;3.08;0.70;;;;;;;;;;5263116;28;20344;-70
2022/05/11 05:56:54;;;;;;;2.10;0.60;;;;;;;;;;5263203;28;20033;-69
2022/05/11 05:59:25;;;;;;;3.65;1.25;;;;;;;;;;5263340;28;20278;-69
2022/05/11 06:01:56;;;;;;;3.33;0.55;;;;;;;;;;5262660;28;20063;-69
2022/05/11 06:04:27;;;;;;;5.50;0.90;;;;;;;;;;5262805;28;20409;-69
2022/05/11 06:06:59;;;;;;;2.90;0.55;;;;;;;;;;5263505;28;20203;-69
2022/05/11 06:09:30;;;;;;;2.75;0.50;;;;;;;;;;5262169;28;20268;-69
2022/05/11 06:12:01;;;;;;;4.15;0.60;;;;;;;;;;5263068;28;20773;-69
2022/05/11 06:14:32;;;;;;;2.63;0.50;;;;;;;;;;5262586;28;20021;-69
2022/05/11 06:17:04;;;;;;;1.75;0.47;;;;;;;;;;5262021;28;20710;-69
2022/05/11 06:19:35;;;;;;;1.92;0.60;;;;;;;;;;5262807;28;20029;-69
2022/05/11 06:22:06;;;;;;;4.28;0.60;;;;;;;;;;5262472;28;20055;-69
2022/05/11 06:24:37;;;;;;;5.82;0.52;;;;;;;;;;5262000;28;20279;-69
2022/05/11 06:27:16;;;;;;;2.53;0.50;;;;;;;;;;5262924;28;20009;-69
2022/05/11 06:29:52;;;;;;;3.05;0.50;;;;;;;;;;5262589;28;20036;-70
2022/05/11 06:32:23;;;;;;;3.28;0.50;;;;;;;;;;5261627;28;20021;-69
2022/05/11 06:34:55;;;;;;;3.35;0.40;;;;;;;;;;5262758;28;20024;-70
2022/05/11 06:37:26;;;;;;;4.88;0.40;;;;;;;;;;5261410;28;20037;-69
2022/05/11 06:39:58;;;;;;;6.50;0.90;;;;;;;;;;5263011;28;20021;-69
2022/05/11 06:42:30;;;;;;;4.97;0.35;;;;;;;;;;5262244;28;20570;-69
2022/05/11 06:45:02;;;;;;;4.55;0.50;;;;;;;;;;5261807;28;20021;-68
2022/05/11 06:47:33;;;;;;;4.50;0.60;;;;;;;;;;5261973;28;20371;-68
2022/05/11 06:50:05;;;;;;;4.32;0.40;;;;;;;;;;5261863;28;20017;-68
2022/05/11 06:52:36;;;;;;;4.82;0.50;;;;;;;;;;5261319;28;20417;-68
2022/05/11 07:01:07;;;;;;;3.47;0.70;;;;;;;;;;5259592;28;20056;-68
2022/05/11 07:03:38;;;;;;;3.60;0.77;;;;;;;;;;5259996;28;20068;-68
2022/05/11 07:06:09;;;;;;;4.30;0.68;;;;;;;;;;5260160;28;20329;-70
2022/05/11 07:08:42;;;;;;;7.60;0.60;;;;;;;;;;5261988;28;20362;-68
2022/05/11 07:14:03;;;;;;;5.50;0.50;;;;;;;;;;5261687;28;20036;-69
2022/05/11 07:16:34;;;;;;;3.38;0.47;;;;;;;;;;5261597;28;20021;-67
2022/05/11 07:19:06;;;;;;;5.35;0.50;;;;;;;;;;5261486;28;20053;-67
2022/05/11 07:21:37;;;;;;;3.00;0.57;;;;;;;;;;5261469;28;20503;-67
2022/05/11 07:24:09;;;;;;;4.35;0.60;;;;;;;;;;5261775;28;20057;-65
2022/05/11 07:26:40;;;;;;;5.88;0.60;;;;;;;;;;5260158;28;20029;-66
2022/05/11 07:29:12;;;;;;;5.95;1.02;;;;;;;;;;5261686;28;20024;-69
2022/05/11 07:31:45;;;;;;;3.72;0.60;;;;;;;;;;5261420;28;20024;-68
2022/05/11 07:34:17;;;;;;;6.00;0.70;;;;;;;;;;5260672;28;20096;-67
2022/05/11 07:36:54;;;;;;;5.72;0.95;;;;;;;;;;5261521;28;20115;-68
2022/05/11 07:39:26;;;;;;;4.93;0.50;;;;;;;;;;5259636;28;20087;-68
2022/05/11 07:41:58;;;;;;;2.83;0.50;;;;;;;;;;5260140;28;20118;-68
2022/05/11 07:44:29;;;;;;;2.08;0.40;;;;;;;;;;5261048;28;20045;-68
2022/05/11 07:47:01;;;;;;;5.32;0.50;;;;;;;;;;5261319;28;20068;-67
2022/05/11 07:49:32;;;;;;;2.67;0.53;;;;;;;;;;5260203;28;20305;-67
2022/05/11 07:52:04;;;;;;;4.37;0.60;;;;;;;;;;5261352;28;20742;-68
2022/05/11 07:54:35;;;;;;;7.63;0.50;;;;;;;;;;5260155;28;20279;-68
2022/05/11 07:59:59;;;;;;;3.72;0.60;;;;;;;;;;5261473;28;20244;-67
2022/05/11 08:02:31;;;;;;;7.55;0.50;;;;;;;;;;5259793;28;20033;-68
2022/05/11 08:05:07;;;;;;;4.10;0.50;;;;;;;;;;5260905;28;20025;-68
2022/05/11 08:07:40;;;;;;;6.03;0.50;;;;;;;;;;5260449;28;20044;-68
2022/05/11 08:10:14;;;;;;;6.95;0.60;;;;;;;;;;5259680;28;20520;-67
2022/05/11 08:12:45;;;;;;;4.82;0.55;;;;;;;;;;5260855;28;20550;-68
2022/05/11 08:15:17;;;;;;;7.00;0.80;;;;;;;;;;5258866;28;20139;-67
2022/05/11 08:17:49;;;;;;;6.88;0.80;;;;;;;;;;5280103;28;20306;-68
2022/05/11 08:20:22;;;;;;;2.22;0.80;;;;;;;;;;5280723;28;20024;-68
2022/05/11 08:22:53;;;;;;;3.72;0.50;;;;;;;;;;5279780;28;20033;-69
2022/05/11 08:25:25;;;;;;;6.87;0.50;;;;;;;;;;5280197;28;20016;-66
2022/05/11 08:27:57;;;;;;;4.25;1.35;;;;;;;;;;5281055;28;20294;-68
2022/05/11 08:33:23;;;;;;;5.60;0.88;;;;;;;;;;5280226;28;20475;-68
2022/05/11 08:36:02;;;;;;;6.85;0.65;;;;;;;;;;5280873;28;20020;-68
2022/05/11 08:38:34;;;;;;;2.55;0.55;;;;;;;;;;5279826;28;20016;-68
2022/05/11 08:41:12;;;;;;;6.35;0.70;;;;;;;;;;5280950;28;20025;-69
2022/05/11 08:43:43;;;;;;;4.05;0.52;;;;;;;;;;5280387;28;20032;-68
2022/05/11 08:46:21;;;;;;;8.32;1.13;;;;;;;;;;5280819;28;20013;-68
2022/05/11 08:49:01;;;;;;;3.00;0.60;;;;;;;;;;5281068;28;20028;-68
2022/05/11 08:51:50;;;;;;;3.80;0.50;;;;;;;;;;5279955;28;20042;-72
2022/05/11 08:54:45;;;;;;;2.83;0.60;;;;;;;;;;5280554;28;20102;-71
2022/05/11 08:57:23;;;;;;;5.38;0.60;;;;;;;;;;5274945;28;20436;-70
2022/05/11 08:59:58;;;;;;;5.78;0.70;;;;;;;;;;5280652;28;20020;-71
2022/05/11 09:02:52;;;;;;;4.13;0.70;;;;;;;;;;5280516;28;20364;-71
2022/05/11 09:05:26;;;;;;;6.88;0.50;;;;;;;;;;5279549;28;20020;-72
2022/05/11 09:07:59;;;;;;;10.43;0.80;;;;;;;;;;5281066;28;20024;-70
2022/05/11 09:10:32;;;;;;;7.05;0.60;;;;;;;;;;5280630;28;20070;-71
2022/05/11 09:13:05;;;;;;;5.55;1.08;;;;;;;;;;5280050;28;20472;-70
2022/05/11 09:15:46;;;;;;;5.47;0.70;;;;;;;;;;5280513;28;20024;-70
2022/05/11 09:18:17;;;;;;;2.67;0.55;;;;;;;;;;5280596;28;20043;-71
2022/05/11 09:20:52;;;;;;;6.03;0.63;;;;;;;;;;5279860;28;20471;-72
2022/05/11 09:23:28;;;;;;;3.05;0.70;;;;;;;;;;5280102;28;20290;-73
2022/05/11 09:26:02;;;;;;;6.50;0.50;;;;;;;;;;5279949;28;20442;-73
2022/05/11 09:28:35;;;;;;;6.10;0.63;;;;;;;;;;5280492;28;20024;-74
2022/05/11 09:31:07;;;;;;;3.72;0.57;;;;;;;;;;5280457;28;20459;-72
2022/05/11 09:33:40;;;;;;;3.53;0.90;;;;;;;;;;5279619;28;20155;-73
2022/05/11 09:36:11;;;;;;;5.13;0.55;;;;;;;;;;5280203;28;20066;-73
2022/05/11 09:38:43;;;;;;;5.32;0.70;;;;;;;;;;5280335;28;20021;-72
2022/05/11 09:41:17;;;;;;;3.55;0.60;;;;;;;;;;5279710;28;20027;-73
2022/05/11 09:43:53;;;;;;;3.53;0.80;;;;;;;;;;5280306;28;20139;-74
2022/05/11 09:46:34;;;;;;;6.35;0.85;;;;;;;;;;5280085;28;20127;-73
2022/05/11 09:49:17;;;;;;;4.25;0.70;;;;;;;;;;5279595;28;20489;-73
2022/05/11 09:51:50;;;;;;;6.03;0.73;;;;;;;;;;5284188;28;20056;-73
2022/05/11 09:54:24;;;;;;;9.23;0.93;;;;;;;;;;5282984;28;20502;-73
2022/05/11 09:56:57;;;;;;;4.90;0.90;;;;;;;;;;5285025;28;20052;-74
2022/05/11 09:59:28;;;;;;;7.85;0.80;;;;;;;;;;5283766;28;20024;-73
2022/05/11 10:02:18;;;;;;;6.90;0.60;;;;;;;;;;5283577;28;20024;-72
2022/05/11 10:05:08;;;;;;;13.20;1.40;;;;;;;;;;5284479;28;20035;-72
2022/05/11 10:07:39;;;;;;;7.03;0.63;;;;;;;;;;5283838;28;20169;-72
2022/05/11 10:10:28;;;;;;;7.60;0.70;;;;;;;;;;5283356;28;20092;-72
2022/05/11 10:13:35;;;;;;;2.38;0.60;;;;;;;;;;5284404;28;20532;-72
2022/05/11 10:21:56;;;;;;;3.42;0.77;;;;;;;;;;5283627;28;20428;-70
2022/05/11 10:24:39;;;;;;;3.58;0.70;;;;;;;;;;5282288;28;20028;-69
2022/05/11 10:27:10;;;;;;;4.72;0.75;;;;;;;;;;5269778;28;20048;-69
2022/05/11 10:29:57;;;;;;;4.60;0.70;;;;;;;;;;5282932;28;20021;-69
2022/05/11 10:32:51;;;;;;;5.40;0.90;;;;;;;;;;5283072;28;20093;-68
2022/05/11 10:35:24;;;;;;;5.40;0.57;;;;;;;;;;5283041;28;20031;-69
2022/05/11 10:37:58;;;;;;;5.03;0.70;;;;;;;;;;5283484;28;20069;-71
2022/05/11 10:40:40;;;;;;;12.02;0.63;;;;;;;;;;5283422;28;20012;-68
2022/05/11 10:43:36;;;;;;;5.05;0.60;;;;;;;;;;5282956;28;20487;-68
2022/05/11 10:46:13;;;;;;;3.95;0.65;;;;;;;;;;5283727;28;20029;-69
2022/05/11 10:48:53;;;;;;;4.65;0.60;;;;;;;;;;5283537;28;20032;-69
2022/05/11 10:51:34;;;;;;;6.60;0.55;;;;;;;;;;5282069;28;20032;-69
2022/05/11 10:54:22;;;;;;;8.80;0.50;;;;;;;;;;5283218;28;20016;-74
2022/05/11 10:57:02;;;;;;;6.05;0.70;;;;;;;;;;5283602;28;20029;-70
2022/05/11 10:59:50;;;;;;;4.57;0.80;;;;;;;;;;5282244;28;20025;-70
2022/05/11 11:02:37;;;;;;;3.58;0.80;;;;;;;;;;5281832;28;20064;-71
2022/05/11 11:05:23;;;;;;;6.07;0.65;;;;;;;;;;5282263;28;20446;-69
2022/05/11 11:08:13;;;;;;;5.15;0.63;;;;;;;;;;5283142;28;20121;-70
2022/05/11 11:10:57;;;;;;;3.75;0.70;;;;;;;;;;5283032;28;20150;-70
2022/05/11 11:13:32;;;;;;;4.88;0.60;;;;;;;;;;5282074;28;20111;-71
2022/05/11 11:16:03;;;;;;;4.32;0.55;;;;;;;;;;5282575;28;20100;-70
2022/05/11 11:18:37;;;;;;;8.23;0.60;;;;;;;;;;5281518;28;20620;-71
2022/05/11 11:21:09;;;;;;;3.10;0.63;;;;;;;;;;5282707;28;20464;-71
2022/05/11 11:23:42;;;;;;;8.25;0.70;;;;;;;;;;5282487;28;20041;-69
2022/05/11 11:26:28;;;;;;;5.95;0.77;;;;;;;;;;5281733;28;20120;-70
2022/05/11 11:29:01;;;;;;;3.85;0.50;;;;;;;;;;5282527;28;20513;-71
2022/05/11 11:31:32;;;;;;;4.35;0.60;;;;;;;;;;5282533;28;20031;-68
2022/05/11 11:34:03;;;;;;;3.00;0.90;;;;;;;;;;5281854;28;20112;-69
2022/05/11 11:36:36;;;;;;;4.15;0.50;;;;;;;;;;5282243;28;20738;-70
2022/05/11 11:39:14;;;;;;;4.80;0.80;;;;;;;;;;5282108;28;20025;-70
2022/05/11 11:41:45;;;;;;;3.55;0.50;;;;;;;;;;5281377;28;20026;-70
2022/05/11 11:44:48;;;;;;;4.10;0.60;;;;;;;;;;5282366;28;20158;-70
2022/05/11 11:47:26;;;;;;;5.30;0.80;;;;;;;;;;5268859;28;20041;-70
2022/05/11 11:49:58;;;;;;;6.70;0.65;;;;;;;;;;5281930;28;20028;-70
2022/05/11 11:52:40;;;;;;;5.03;0.77;;;;;;;;;;5280540;28;20021;-68
2022/05/11 11:55:18;;;;;;;4.97;0.60;;;;;;;;;;5280699;28;20427;-69
2022/05/11 11:57:53;;;;;;;7.82;0.50;;;;;;;;;;5281813;28;20463;-69
2022/05/11 12:00:32;;;;;;;2.00;0.47;;;;;;;;;;5280691;28;20020;-69
2022/05/11 12:03:12;;;;;;;6.15;1.00;;;;;;;;;;5281754;28;20035;-71
2022/05/11 12:05:46;;;;;;;7.18;0.50;;;;;;;;;;5281838;28;20024;-71
2022/05/11 12:16:57;;;;;;;3.60;0.80;;;;;;;;;;5281150;28;20067;-69
2022/05/11 12:19:30;;;;;;;4.78;0.50;;;;;;;;;;5281447;28;20044;-69
2022/05/11 12:22:04;;;;;;;3.85;0.50;;;;;;;;;;5280591;28;20066;-69
2022/05/11 12:24:36;;;;;;;5.25;0.50;;;;;;;;;;5281947;28;20099;-69
2022/05/11 12:27:12;;;;;;;5.18;0.50;;;;;;;;;;5281534;28;20446;-69
2022/05/11 12:29:59;;;;;;;5.78;0.65;;;;;;;;;;5280959;28;20021;-69
2022/05/11 12:32:32;;;;;;;5.07;0.40;;;;;;;;;;5281198;28;20394;-70
2022/05/11 12:35:12;;;;;;;3.05;0.50;;;;;;;;;;5281469;28;20029;-68
2022/05/11 12:37:43;;;;;;;5.25;0.55;;;;;;;;;;5280377;28;20019;-69
2022/05/11 12:40:17;;;;;;;2.75;0.60;;;;;;;;;;5281417;28;20095;-69
2022/05/11 12:42:52;;;;;;;5.10;0.60;;;;;;;;;;5280533;28;20519;-69
2022/05/11 12:45:35;;;;;;;6.00;0.60;;;;;;;;;;5280909;28;20032;-69
2022/05/11 12:48:07;;;;;;;6.60;0.50;;;;;;;;;;5281121;28;20062;-68
2022/05/11 12:50:46;;;;;;;4.95;0.50;;;;;;;;;;5279864;28;20024;-72
2022/05/11 12:53:17;;;;;;;3.90;0.60;;;;;;;;;;5281379;28;20432;-70
2022/05/11 12:55:53;;;;;;;4.13;0.50;;;;;;;;;;5281465;28;20028;-72
2022/05/11 12:58:26;;;;;;;2.63;0.60;;;;;;;;;;5279936;28;20048;-70
2022/05/11 13:00:59;;;;;;;5.18;0.60;;;;;;;;;;5281266;28;20095;-69
2022/05/11 13:03:33;;;;;;;5.03;0.60;;;;;;;;;;5280508;28;20033;-71
2022/05/11 13:06:10;;;;;;;5.45;0.43;;;;;;;;;;5280530;28;20021;-69
2022/05/11 13:08:43;;;;;;;3.05;0.40;;;;;;;;;;5281173;28;20023;-68
2022/05/11 13:11:17;;;;;;;4.88;0.60;;;;;;;;;;5276227;28;20020;-69
2022/05/11 13:13:51;;;;;;;6.07;0.65;;;;;;;;;;5280665;28;20025;-69
2022/05/11 13:16:27;;;;;;;6.95;0.50;;;;;;;;;;5279571;28;20021;-69
2022/05/11 13:19:07;;;;;;;6.63;1.05;;;;;;;;;;5279690;28;20036;-68
2022/05/11 13:21:38;;;;;;;6.47;0.57;;;;;;;;;;5280554;28;20029;-70
2022/05/11 13:24:09;;;;;;;13.20;1.00;;;;;;;;;;5280365;28;20058;-69
2022/05/11 13:26:42;;;;;;;7.57;0.60;;;;;;;;;;5283062;28;20344;-69
2022/05/11 13:29:16;;;;;;;5.88;0.60;;;;;;;;;;5284562;28;20683;-70
2022/05/11 13:32:01;;;;;;;5.93;0.60;;;;;;;;;;5284478;28;20405;-68
2022/05/11 13:34:34;;;;;;;8.65;0.60;;;;;;;;;;5284097;28;20051;-69
2022/05/11 13:37:08;;;;;;;5.63;0.50;;;;;;;;;;5283949;28;20096;-69
2022/05/11 13:39:39;;;;;;;4.93;0.65;;;;;;;;;;5283495;28;20096;-69
2022/05/11 13:42:16;;;;;;;7.30;0.82;;;;;;;;;;5284147;28;20095;-69
2022/05/11 13:44:52;;;;;;;2.92;0.70;;;;;;;;;;5284681;28;20013;-69
2022/05/11 13:50:14;;;;;;;6.30;0.70;;;;;;;;;;5284186;28;20028;-69
2022/05/11 13:52:50;;;;;;;9.18;0.70;;;;;;;;;;5283862;28;20027;-70
2022/05/11 13:55:28;;;;;;;7.15;0.55;;;;;;;;;;5282740;28;20036;-69
2022/05/11 13:58:18;;;;;;;2.72;0.45;;;;;;;;;;5284058;28;20024;-69
2022/05/11 14:00:49;;;;;;;4.47;0.50;;;;;;;;;;5283654;28;20117;-69
2022/05/11 14:03:23;;;;;;;6.25;0.60;;;;;;;;;;5283601;28;20066;-69
2022/05/11 14:05:55;;;;;;;5.30;0.50;;;;;;;;;;5283917;28;20028;-69
2022/05/11 14:08:26;;;;;;;9.45;0.82;;;;;;;;;;5282509;28;20016;-70
2022/05/11 14:10:57;;;;;;;5.65;0.43;;;;;;;;;;5284081;28;20019;-70
2022/05/11 14:13:28;;;;;;;8.40;0.80;;;;;;;;;;5283530;28;20464;-69
2022/05/11 14:16:00;;;;;;;6.23;0.67;;;;;;;;;;5283362;28;20016;-69
2022/05/11 14:18:31;;;;;;;4.45;0.65;;;;;;;;;;5282774;28;20286;-70
2022/05/11 14:21:02;;;;;;;3.13;0.60;;;;;;;;;;5284020;28;20071;-69
2022/05/11 14:23:34;;;;;;;6.03;0.50;;;;;;;;;;5281494;28;20113;-69
2022/05/11 14:26:05;;;;;;;5.65;0.40;;;;;;;;;;5283489;28;20906;-69
2022/05/11 14:28:36;;;;;;;4.72;0.50;;;;;;;;;;5282486;28;20028;-70
2022/05/11 14:31:12;;;;;;;8.35;0.85;;;;;;;;;;5283575;28;20017;-70
2022/05/11 14:33:44;;;;;;;6.72;0.50;;;;;;;;;;5283749;28;20195;-70
2022/05/11 14:36:15;;;;;;;6.88;0.63;;;;;;;;;;5282840;28;20423;-69
2022/05/11 14:38:46;;;;;;;6.10;0.65;;;;;;;;;;5283456;28;20021;-69
2022/05/11 14:41:17;;;;;;;3.58;0.60;;;;;;;;;;5283679;28;20035;-70
2022/05/11 14:43:49;;;;;;;3.53;0.68;;;;;;;;;;5282869;28;20119;-68
2022/05/11 14:46:21;;;;;;;7.47;0.70;;;;;;;;;;5282954;28;20066;-68
2022/05/11 14:48:54;;;;;;;3.42;0.40;;;;;;;;;;5283489;28;20392;-69
2022/05/11 14:51:26;;;;;;;3.25;0.50;;;;;;;;;;5281979;28;20017;-69
2022/05/11 14:53:58;;;;;;;4.03;0.63;;;;;;;;;;5283352;28;20024;-70
2022/05/11 14:56:29;;;;;;;4.13;0.50;;;;;;;;;;5282313;28;20376;-69
2022/05/11 15:01:59;;;;;;;2.17;0.80;;;;;;;;;;5283567;28;20403;-69
2022/05/11 15:04:31;;;;;;;6.45;0.77;;;;;;;;;;5281814;28;20021;-69
2022/05/11 15:07:02;;;;;;;6.30;0.90;;;;;;;;;;5282880;28;20495;-69
2022/05/11 15:09:33;;;;;;;12.00;0.57;;;;;;;;;;5282593;28;20378;-69
2022/05/11 15:14:55;;;;;;;5.18;0.55;;;;;;;;;;5283769;28;20263;-68
2022/05/11 15:17:27;;;;;;;10.17;0.70;;;;;;;;;;5281901;28;20029;-68
2022/05/11 15:20:03;;;;;;;6.53;0.50;;;;;;;;;;5283204;28;20266;-69
2022/05/11 15:22:34;;;;;;;7.43;1.15;;;;;;;;;;5282543;28;20546;-69
2022/05/11 15:25:06;;;;;;;8.47;0.53;;;;;;;;;;5281494;28;20107;-69
2022/05/11 15:27:38;;;;;;;9.70;0.60;;;;;;;;;;5282875;28;20277;-69
2022/05/11 15:30:11;;;;;;;6.15;0.47;;;;;;;;;;5282362;28;20379;-70
2022/05/11 15:32:42;;;;;;;9.13;0.75;;;;;;;;;;5281631;28;20085;-69
2022/05/11 15:35:14;;;;;;;5.67;0.70;;;;;;;;;;5282600;28;20463;-69
2022/05/11 15:37:46;;;;;;;7.53;0.70;;;;;;;;;;5282287;28;20737;-68
2022/05/11 15:40:18;;;;;;;3.70;0.60;;;;;;;;;;5281388;28;20044;-69
2022/05/11 15:42:49;;;;;;;5.80;0.43;;;;;;;;;;5282356;28;20505;-69
2022/05/11 15:45:21;;;;;;;6.95;0.98;;;;;;;;;;5281637;28;20024;-69
2022/05/11 15:47:52;;;;;;;5.90;0.60;;;;;;;;;;5280893;28;20563;-69
2022/05/11 15:50:23;;;;;;;6.03;0.52;;;;;;;;;;5281799;28;20035;-70
2022/05/11 15:52:54;;;;;;;11.20;0.50;;;;;;;;;;5281371;28;20453;-70
2022/05/11 15:55:27;;;;;;;8.82;0.90;;;;;;;;;;5281618;28;20024;-70
2022/05/11 15:57:58;;;;;;;5.22;0.63;;;;;;;;;;5282226;28;20024;-69
2022/05/11 16:00:29;;;;;;;8.90;0.40;;;;;;;;;;5280926;28;20379;-69
2022/05/11 16:03:02;;;;;;;7.82;0.50;;;;;;;;;;5281597;28;20197;-70
2022/05/11 16:05:33;;;;;;;5.47;1.05;;;;;;;;;;5281674;28;20467;-69
2022/05/11 16:08:04;;;;;;;4.35;0.40;;;;;;;;;;5280825;28;20021;-69